Time;durP1;ratioP1;P1;durP2;ratioP2;P2;SDS_P1;SDS_P2;PMS_P1;PMS_P2;Temp;Humidity;BMP_temperature;BMP_pressure;BME280_temperature;BME280_humidity;BME280_pressure;Samples;Min_cycle;Max_cycle;Signal;HPM_P1;HPM_P2
2023/12/04 00:01:52;;;;;;;10.05;5.90;;;;;;;3.66;100.00;99198.78;5020099;28;20025;-72
2023/12/04 00:04:17;;;;;;;8.48;5.78;;;;;;;3.67;100.00;99191.38;5025706;28;20045;-73
2023/12/04 00:06:43;;;;;;;12.35;6.55;;;;;;;3.67;100.00;99181.19;5017978;28;20053;-73
2023/12/04 00:09:08;;;;;;;10.02;5.70;;;;;;;3.67;100.00;99192.19;5020176;28;20084;-73
2023/12/04 00:11:36;;;;;;;9.65;5.82;;;;;;;3.66;100.00;99181.50;5016738;28;20137;-73
2023/12/04 00:14:02;;;;;;;9.20;5.75;;;;;;;3.66;100.00;99160.34;5020343;28;20494;-73
2023/12/04 00:16:27;;;;;;;9.60;5.60;;;;;;;3.67;100.00;99159.25;5036188;28;20052;-73
2023/12/04 00:18:52;;;;;;;10.32;5.60;;;;;;;3.68;100.00;99160.91;5019657;28;20045;-73
2023/12/04 00:21:18;;;;;;;11.65;5.40;;;;;;;3.68;100.00;99151.84;5016510;28;20026;-73
2023/12/04 00:23:43;;;;;;;11.23;6.18;;;;;;;3.67;100.00;99150.19;5011774;28;20041;-73
2023/12/04 00:26:09;;;;;;;12.98;6.10;;;;;;;3.65;100.00;99150.47;5019757;28;20037;-73
2023/12/04 00:28:37;;;;;;;9.15;5.80;;;;;;;3.67;100.00;99130.97;5019470;28;20083;-73
2023/12/04 00:31:03;;;;;;;10.20;6.38;;;;;;;3.68;100.00;99127.94;5036203;28;20502;-73
2023/12/04 00:33:29;;;;;;;10.43;5.85;;;;;;;3.67;100.00;99125.47;5000097;28;20052;-73
2023/12/04 00:35:54;;;;;;;15.80;6.80;;;;;;;3.70;100.00;99125.72;5015363;28;20025;-73
2023/12/04 00:38:19;;;;;;;10.55;5.85;;;;;;;3.70;100.00;99113.91;5019507;28;20060;-73
2023/12/04 00:40:45;;;;;;;12.18;6.05;;;;;;;3.69;100.00;99115.84;5019485;28;20036;-73
2023/12/04 00:43:10;;;;;;;11.50;5.97;;;;;;;3.68;100.00;99114.22;5019611;28;20548;-73
2023/12/04 00:45:37;;;;;;;11.27;6.00;;;;;;;3.71;100.00;99101.84;5016808;28;20058;-73
2023/12/04 00:48:02;;;;;;;9.65;6.28;;;;;;;3.69;100.00;99096.63;5012356;28;20056;-73
2023/12/04 00:50:28;;;;;;;12.13;5.78;;;;;;;3.70;100.00;99105.69;4999791;28;20037;-72
2023/12/04 00:52:53;;;;;;;10.52;5.90;;;;;;;3.70;100.00;99092.78;5016058;28;20041;-73
2023/12/04 00:55:19;;;;;;;9.13;6.13;;;;;;;3.71;100.00;99099.09;5036610;28;20513;-73
2023/12/04 00:57:44;;;;;;;13.15;6.53;;;;;;;3.72;100.00;99090.56;4999613;28;20026;-73
2023/12/04 01:00:10;;;;;;;10.60;5.80;;;;;;;3.72;100.00;99082.31;5037247;28;20058;-73
2023/12/04 01:02:36;;;;;;;11.90;6.35;;;;;;;3.72;100.00;99073.28;5028710;28;20033;-73
2023/12/04 01:05:01;;;;;;;11.02;6.20;;;;;;;3.71;100.00;99060.66;5002760;28;20550;-73
2023/12/04 01:07:27;;;;;;;12.35;6.40;;;;;;;3.72;100.00;99052.13;5018928;28;20025;-73
2023/12/04 01:09:52;;;;;;;10.52;5.63;;;;;;;3.73;100.00;99044.69;5002822;28;20030;-73
2023/12/04 01:12:18;;;;;;;11.57;6.70;;;;;;;3.73;100.00;99041.97;4999328;28;20029;-73
2023/12/04 01:14:43;;;;;;;10.82;6.82;;;;;;;3.73;100.00;99041.97;5045396;28;20057;-73
2023/12/04 01:17:09;;;;;;;11.13;6.97;;;;;;;3.72;100.00;99037.59;5026308;28;20044;-73
2023/12/04 01:19:34;;;;;;;13.93;6.25;;;;;;;3.73;100.00;99036.47;5018821;28;20033;-73
2023/12/04 01:22:00;;;;;;;13.57;6.47;;;;;;;3.73;100.00;99025.47;4999003;28;20367;-73
2023/12/04 01:24:25;;;;;;;10.65;6.25;;;;;;;3.73;100.00;99018.09;5017132;28;20040;-73
2023/12/04 01:26:51;;;;;;;10.70;6.38;;;;;;;3.77;100.00;99018.34;5035307;28;20075;-73
2023/12/04 01:29:16;;;;;;;10.85;6.35;;;;;;;3.78;100.00;99009.78;5033531;28;20056;-73
2023/12/04 01:31:41;;;;;;;9.48;5.65;;;;;;;3.79;100.00;99000.47;5018910;28;20033;-73
2023/12/04 01:34:07;;;;;;;10.38;6.43;;;;;;;3.79;100.00;99003.22;5019010;28;20111;-73
2023/12/04 01:36:32;;;;;;;11.10;6.38;;;;;;;3.78;100.00;98996.06;4998737;28;20030;-73
2023/12/04 01:38:58;;;;;;;11.48;6.07;;;;;;;3.80;100.00;98987.53;5016466;28;20021;-73
2023/12/04 01:41:23;;;;;;;11.55;6.50;;;;;;;3.81;100.00;98992.72;5015323;28;20045;-73
2023/12/04 01:43:49;;;;;;;11.07;6.63;;;;;;;3.81;100.00;98983.69;5029045;28;20390;-73
2023/12/04 01:46:15;;;;;;;14.18;7.10;;;;;;;3.84;100.00;98983.09;5026683;28;20032;-73
2023/12/04 01:48:41;;;;;;;12.20;6.30;;;;;;;3.82;100.00;98968.88;5018576;28;20060;-73
2023/12/04 01:51:07;;;;;;;12.13;7.07;;;;;;;3.82;100.00;98968.88;4998846;28;20482;-73
2023/12/04 01:53:33;;;;;;;12.55;6.88;;;;;;;3.83;100.00;98962.25;5017377;28;20049;-73
2023/12/04 01:55:59;;;;;;;11.63;7.13;;;;;;;3.85;100.00;98964.72;5018567;28;20025;-73
2023/12/04 01:58:24;;;;;;;10.50;6.82;;;;;;;3.84;100.00;98969.38;5031532;28;20025;-73
2023/12/04 02:00:50;;;;;;;11.70;7.00;;;;;;;3.86;100.00;98975.41;5023395;28;20041;-73
2023/12/04 02:03:15;;;;;;;14.18;7.20;;;;;;;3.86;100.00;98949.88;5061556;28;20025;-73
2023/12/04 02:05:41;;;;;;;14.50;7.40;;;;;;;3.87;100.00;98966.06;5008013;28;20029;-73
2023/12/04 02:08:06;;;;;;;13.27;6.97;;;;;;;3.88;100.00;98947.66;5020667;28;20025;-73
2023/12/04 02:10:32;;;;;;;14.40;7.57;;;;;;;3.90;100.00;98954.50;5029089;28;20026;-73
2023/12/04 02:12:58;;;;;;;11.50;6.75;;;;;;;3.92;100.00;98956.97;5018258;28;20056;-73
2023/12/04 02:15:23;;;;;;;14.63;7.63;;;;;;;3.90;100.00;98953.69;5015145;28;20056;-73
2023/12/04 02:17:49;;;;;;;12.90;7.88;;;;;;;3.91;100.00;98933.34;5001179;28;20037;-73
2023/12/04 02:20:14;;;;;;;11.98;7.40;;;;;;;3.90;100.00;98938.03;4986068;28;20462;-73
2023/12/04 02:22:40;;;;;;;13.63;7.30;;;;;;;3.92;100.00;98932.25;5017903;28;20030;-73
2023/12/04 02:25:06;;;;;;;15.10;7.82;;;;;;;3.93;100.00;98934.72;5015063;28;20026;-73
2023/12/04 02:27:37;;;;;;;11.73;7.70;;;;;;;3.95;100.00;98918.75;5013824;28;20033;-73
2023/12/04 02:30:03;;;;;;;17.65;7.60;;;;;;;3.95;100.00;98917.94;5018595;28;20033;-73
2023/12/04 02:32:31;;;;;;;12.20;8.05;;;;;;;3.98;100.00;98906.34;5014811;28;20026;-73
2023/12/04 02:34:56;;;;;;;12.45;7.30;;;;;;;3.99;100.00;98908.00;5042788;28;20085;-73
2023/12/04 02:37:22;;;;;;;17.80;8.48;;;;;;;3.97;100.00;98912.97;4998406;28;20356;-73
2023/12/04 02:39:49;;;;;;;14.73;8.18;;;;;;;4.01;100.00;98905.78;4998587;28;20120;-73
2023/12/04 02:42:16;;;;;;;10.70;7.20;;;;;;;3.99;100.00;98899.78;5021737;28;20033;-73
2023/12/04 02:44:42;;;;;;;12.40;7.72;;;;;;;4.02;100.00;98901.94;5033958;28;20033;-73
2023/12/04 02:47:07;;;;;;;12.93;7.72;;;;;;;4.02;100.00;98908.25;5039886;28;20033;-73
2023/12/04 02:49:33;;;;;;;15.63;7.60;;;;;;;4.00;100.00;98895.91;5021615;28;20029;-73
2023/12/04 02:51:58;;;;;;;11.90;7.43;;;;;;;4.02;100.00;98897.25;5021359;28;20099;-73
2023/12/04 02:54:24;;;;;;;16.65;8.20;;;;;;;4.01;100.00;98890.13;5021601;28;20033;-73
2023/12/04 02:56:50;;;;;;;11.75;7.18;;;;;;;4.03;100.00;98881.59;5026537;28;20714;-73
2023/12/04 02:59:15;;;;;;;10.05;6.88;;;;;;;4.02;100.00;98879.97;5009526;28;20034;-73
2023/12/04 03:01:41;;;;;;;11.82;7.13;;;;;;;4.03;100.00;98862.34;5001832;28;20030;-73
2023/12/04 03:04:06;;;;;;;10.82;7.00;;;;;;;4.02;100.00;98863.47;5020517;28;20032;-73
2023/12/04 03:06:32;;;;;;;13.07;7.30;;;;;;;4.03;100.00;98860.41;5050381;28;20104;-73
2023/12/04 03:08:59;;;;;;;12.00;7.13;;;;;;;4.03;100.00;98846.69;5001652;28;20034;-73
2023/12/04 03:11:25;;;;;;;11.13;7.07;;;;;;;4.04;100.00;98844.78;5001930;28;20026;-73
2023/12/04 03:13:50;;;;;;;11.45;7.55;;;;;;;4.04;100.00;98844.78;5037724;28;20037;-73
2023/12/04 03:16:19;;;;;;;10.85;7.53;;;;;;;4.03;100.00;98837.63;5004385;28;20034;-73
2023/12/04 03:18:44;;;;;;;11.48;7.28;;;;;;;4.01;100.00;98829.69;5017952;28;20470;-73
2023/12/04 03:21:10;;;;;;;11.13;7.10;;;;;;;4.02;100.00;98814.03;5017819;28;20038;-73
2023/12/04 03:23:35;;;;;;;12.98;7.63;;;;;;;4.01;100.00;98818.72;5020882;28;20040;-73
2023/12/04 03:26:01;;;;;;;10.05;6.25;;;;;;;4.00;100.00;98805.25;5001396;28;20055;-73
2023/12/04 03:28:26;;;;;;;11.35;6.63;;;;;;;3.99;100.00;98803.63;5003411;28;20029;-73
2023/12/04 03:30:52;;;;;;;9.52;6.47;;;;;;;3.95;100.00;98800.63;5020795;28;20029;-73
2023/12/04 03:33:17;;;;;;;11.85;7.13;;;;;;;3.97;100.00;98797.59;5020941;28;20040;-73
2023/12/04 03:35:43;;;;;;;12.48;6.75;;;;;;;3.97;100.00;98790.19;5037282;28;20034;-73
2023/12/04 03:38:09;;;;;;;11.80;7.22;;;;;;;3.96;100.00;98785.00;5017177;28;20034;-73
2023/12/04 03:40:34;;;;;;;9.98;6.70;;;;;;;3.92;100.00;98781.19;5018632;28;20087;-73
2023/12/04 03:43:00;;;;;;;11.40;6.65;;;;;;;3.93;100.00;98767.16;5001235;28;20026;-73
2023/12/04 03:45:25;;;;;;;10.75;6.32;;;;;;;3.93;100.00;98769.91;4998689;28;20037;-73
2023/12/04 03:47:51;;;;;;;10.55;6.78;;;;;;;3.93;100.00;98752.63;5020688;28;20079;-73
2023/12/04 03:50:16;;;;;;;10.02;6.78;;;;;;;3.90;100.00;98747.69;5020473;28;20030;-73
2023/12/04 03:52:42;;;;;;;10.70;7.03;;;;;;;3.89;100.00;98749.63;5024929;28;20040;-73
2023/12/04 03:55:08;;;;;;;10.98;6.90;;;;;;;3.92;100.00;98743.53;5018410;28;20037;-73
2023/12/04 03:57:34;;;;;;;10.18;6.50;;;;;;;3.93;100.00;98728.72;5020450;28;20029;-73
2023/12/04 03:59:59;;;;;;;9.55;6.82;;;;;;;3.93;100.00;98728.72;5018791;28;20030;-73
2023/12/04 04:02:25;;;;;;;12.93;7.15;;;;;;;3.95;100.00;98714.66;5028527;28;20041;-73
2023/12/04 04:04:50;;;;;;;11.88;7.28;;;;;;;3.92;100.00;98721.56;5023338;28;20406;-73
2023/12/04 04:07:16;;;;;;;10.82;6.50;;;;;;;3.93;100.00;98711.41;5020055;28;20029;-73
2023/12/04 04:09:41;;;;;;;11.32;6.70;;;;;;;3.93;100.00;98703.19;5004199;28;20116;-73
2023/12/04 04:12:07;;;;;;;11.48;6.72;;;;;;;3.92;100.00;98696.03;5020040;28;20045;-73
2023/12/04 04:14:32;;;;;;;11.20;6.85;;;;;;;3.96;100.00;98691.59;5019990;28;20030;-73
2023/12/04 04:16:58;;;;;;;12.18;7.30;;;;;;;3.93;100.00;98683.97;5000247;28;20038;-73
2023/12/04 04:19:23;;;;;;;10.18;6.60;;;;;;;3.90;100.00;98670.78;5032514;28;20033;-73
2023/12/04 04:21:50;;;;;;;10.40;7.07;;;;;;;3.92;100.00;98679.56;5019836;28;20386;-73
2023/12/04 04:24:15;;;;;;;11.57;6.95;;;;;;;3.91;100.00;98673.25;5039337;28;20040;-73
2023/12/04 04:26:41;;;;;;;12.95;6.68;;;;;;;3.90;100.00;98657.06;5048014;28;20026;-73
2023/12/04 04:29:06;;;;;;;9.57;6.30;;;;;;;3.90;100.00;98654.31;5002406;28;20030;-73
2023/12/04 04:31:31;;;;;;;10.35;6.47;;;;;;;3.88;100.00;98648.31;4983899;28;20116;-73
2023/12/04 04:33:57;;;;;;;13.10;7.47;;;;;;;3.89;100.00;98622.47;5003212;28;20025;-73
2023/12/04 04:36:22;;;;;;;11.05;7.18;;;;;;;3.90;100.00;98644.16;5019335;28;20033;-73
2023/12/04 04:38:48;;;;;;;13.70;6.18;;;;;;;3.93;100.00;98631.78;5036097;28;20053;-73
2023/12/04 04:41:15;;;;;;;9.93;6.47;;;;;;;3.92;100.00;98644.66;4999968;28;20030;-73
2023/12/04 04:43:40;;;;;;;9.05;6.22;;;;;;;3.94;100.00;98638.88;5032816;28;20111;-73
2023/12/04 04:46:06;;;;;;;11.50;6.28;;;;;;;3.96;100.00;98622.94;5036312;28;20025;-73
2023/12/04 04:48:32;;;;;;;7.97;5.85;;;;;;;3.96;100.00;98620.19;5018896;28;20054;-73
2023/12/04 04:50:57;;;;;;;9.38;5.97;;;;;;;3.99;100.00;98622.34;5027959;28;20051;-73
2023/12/04 04:53:23;;;;;;;10.20;6.18;;;;;;;4.01;100.00;98606.34;5035550;28;20030;-73
2023/12/04 04:55:48;;;;;;;10.10;6.15;;;;;;;4.03;100.00;98604.13;5035859;28;20044;-73
2023/12/04 04:58:13;;;;;;;10.65;6.72;;;;;;;4.03;100.00;98598.66;5002783;28;20052;-74
2023/12/04 05:00:39;;;;;;;9.43;6.10;;;;;;;4.09;100.00;98588.41;5027933;28;20080;-73
2023/12/04 05:03:04;;;;;;;11.85;6.32;;;;;;;4.13;100.00;98573.78;5018099;28;20029;-73
2023/12/04 05:05:30;;;;;;;13.32;5.50;;;;;;;4.18;100.00;98584.69;5015873;28;20037;-73
2023/12/04 05:07:55;;;;;;;9.30;5.60;;;;;;;4.21;100.00;98570.34;5018831;28;20021;-73
2023/12/04 05:10:21;;;;;;;9.90;5.68;;;;;;;4.22;100.00;98569.22;5035548;28;20026;-73
2023/12/04 05:12:46;;;;;;;9.82;5.60;;;;;;;4.24;100.00;98563.44;5018968;28;20057;-73
2023/12/04 05:15:11;;;;;;;9.32;6.03;;;;;;;4.28;100.00;98550.72;4999288;28;20034;-73
2023/12/04 05:17:37;;;;;;;7.82;5.13;;;;;;;4.32;100.00;98537.19;5029659;28;20049;-73
2023/12/04 05:20:03;;;;;;;8.80;5.43;;;;;;;4.34;100.00;98518.47;5036606;28;20068;-73
2023/12/04 05:22:28;;;;;;;7.75;5.57;;;;;;;4.40;100.00;98522.75;5016576;28;20159;-73
2023/12/04 05:24:54;;;;;;;11.90;6.00;;;;;;;4.40;100.00;98529.09;5015666;28;20030;-73
2023/12/04 05:27:19;;;;;;;12.50;6.25;;;;;;;4.45;100.00;98522.66;5073282;28;20025;-73
2023/12/04 05:29:44;;;;;;;9.57;5.28;;;;;;;4.46;100.00;98507.81;5042851;28;20025;-74
2023/12/04 05:32:10;;;;;;;13.93;5.75;;;;;;;4.51;100.00;98526.94;5005857;28;20037;-73
2023/12/04 05:34:35;;;;;;;11.10;5.43;;;;;;;4.52;100.00;98517.59;4999209;28;20025;-73
2023/12/04 05:37:01;;;;;;;9.05;5.50;;;;;;;4.56;100.00;98504.88;5030781;28;20037;-73
2023/12/04 05:39:26;;;;;;;13.18;5.63;;;;;;;4.62;100.00;98506.41;4999116;28;20036;-74
2023/12/04 05:41:52;;;;;;;10.98;5.32;;;;;;;4.67;100.00;98492.56;5051722;28;20124;-73
2023/12/04 05:44:17;;;;;;;9.25;4.88;;;;;;;4.68;100.00;98496.97;4998830;28;20037;-73
2023/12/04 05:46:43;;;;;;;6.82;4.55;;;;;;;4.70;100.00;98497.44;5017140;28;20029;-74
2023/12/04 05:49:10;;;;;;;9.55;4.40;;;;;;;4.78;100.00;98481.38;4998933;28;20034;-73
2023/12/04 05:51:36;;;;;;;7.18;4.43;;;;;;;4.81;100.00;98465.06;5029720;28;20040;-74
2023/12/04 05:54:01;;;;;;;7.57;4.45;;;;;;;4.83;100.00;98460.09;5018843;28;20030;-73
2023/12/04 05:56:26;;;;;;;10.18;4.30;;;;;;;4.87;100.00;98454.78;5034824;28;20038;-73
2023/12/04 05:58:52;;;;;;;8.52;4.07;;;;;;;4.93;100.00;98459.88;5031220;28;20034;-73
2023/12/04 06:01:17;;;;;;;8.32;4.18;;;;;;;4.97;100.00;98453.75;5011758;28;20026;-74
2023/12/04 06:03:43;;;;;;;7.70;3.92;;;;;;;4.97;100.00;98468.31;4979492;28;20025;-74
2023/12/04 06:06:08;;;;;;;10.63;3.88;;;;;;;5.01;100.00;98454.75;5044865;28;20079;-74
2023/12/04 06:08:34;;;;;;;8.50;3.50;;;;;;;5.03;100.00;98464.34;5035856;28;20095;-74
2023/12/04 06:10:59;;;;;;;7.03;4.00;;;;;;;5.11;100.00;98468.31;5018733;28;20036;-74
2023/12/04 06:13:25;;;;;;;9.48;4.43;;;;;;;5.11;100.00;98471.06;5034606;28;20478;-74
2023/12/04 06:15:50;;;;;;;7.55;3.83;;;;;;;5.17;100.00;98444.25;5016714;28;20034;-74
2023/12/04 06:18:16;;;;;;;7.82;3.83;;;;;;;5.23;100.00;98448.50;5021915;28;20553;-73
2023/12/04 06:20:41;;;;;;;18.85;4.82;;;;;;;5.27;100.00;98425.56;5038707;28;20148;-73
2023/12/04 06:23:07;;;;;;;8.55;3.97;;;;;;;5.30;100.00;98435.16;5005890;28;20597;-73
2023/12/04 06:25:33;;;;;;;8.15;3.78;;;;;;;5.38;100.00;98442.69;5002663;28;20033;-73
2023/12/04 06:27:58;;;;;;;9.00;3.97;;;;;;;5.43;100.00;98437.03;5026239;28;20080;-74
2023/12/04 06:30:24;;;;;;;11.30;3.88;;;;;;;5.46;100.00;98433.69;5022248;28;20038;-73
2023/12/04 06:32:49;;;;;;;7.63;4.20;;;;;;;5.52;100.00;98426.13;5005665;28;20036;-73
2023/12/04 06:35:15;;;;;;;9.45;4.00;;;;;;;5.51;100.00;98424.47;5022073;28;20082;-73
2023/12/04 06:37:41;;;;;;;7.07;4.10;;;;;;;5.56;100.00;98418.84;5008512;28;20029;-74
2023/12/04 06:40:11;;;;;;;7.00;3.90;;;;;;;5.57;100.00;98410.28;5022294;28;20038;-74
2023/12/04 06:42:37;;;;;;;8.73;3.40;;;;;;;5.59;100.00;98410.78;5021831;28;20482;-74
2023/12/04 06:45:03;;;;;;;9.15;4.18;;;;;;;5.65;100.00;98396.88;5021784;28;20079;-73
2023/12/04 06:47:30;;;;;;;6.30;3.83;;;;;;;5.67;100.00;98400.16;5021936;28;20040;-74
2023/12/04 06:49:56;;;;;;;8.45;3.78;;;;;;;5.70;100.00;98385.75;5005703;28;20021;-73
2023/12/04 06:52:22;;;;;;;11.00;4.50;;;;;;;5.72;100.00;98380.75;5001929;28;20021;-74
2023/12/04 06:54:47;;;;;;;10.35;3.92;;;;;;;5.77;100.00;98377.88;5021862;28;20029;-73
2023/12/04 06:57:16;;;;;;;10.85;3.53;;;;;;;5.76;100.00;98373.47;5021566;28;20026;-74
2023/12/04 06:59:42;;;;;;;8.02;3.90;;;;;;;5.81;100.00;98371.41;5006121;28;20048;-74
2023/12/04 07:02:07;;;;;;;9.52;3.80;;;;;;;5.82;100.00;98372.19;5021809;28;20029;-74
2023/12/04 07:04:33;;;;;;;10.55;3.85;;;;;;;5.84;100.00;98364.44;5023184;28;20037;-74
2023/12/04 07:07:04;;;;;;;7.28;3.38;;;;;;;5.86;100.00;98356.69;5037726;28;20021;-74
2023/12/04 07:09:30;;;;;;;7.07;3.70;;;;;;;5.86;100.00;98353.94;5037743;28;20025;-74
2023/12/04 07:11:56;;;;;;;15.15;4.15;;;;;;;5.87;100.00;98352.78;5001926;28;20038;-74
2023/12/04 07:14:21;;;;;;;10.25;3.55;;;;;;;5.87;100.00;98361.06;5013208;28;20030;-74
2023/12/04 07:16:47;;;;;;;9.13;3.80;;;;;;;5.87;100.00;98350.03;5020994;28;20052;-74
2023/12/04 07:19:14;;;;;;;7.82;3.40;;;;;;;5.88;100.00;98350.84;5004747;28;20683;-74
2023/12/04 07:21:40;;;;;;;6.82;3.45;;;;;;;5.87;100.00;98333.50;5037391;28;20032;-74
2023/12/04 07:24:06;;;;;;;7.28;3.63;;;;;;;5.86;100.00;98334.66;5021254;28;20026;-74
2023/12/04 07:26:32;;;;;;;8.35;3.55;;;;;;;5.87;100.00;98324.44;5003942;28;20029;-73
2023/12/04 07:28:58;;;;;;;10.45;4.13;;;;;;;5.88;100.00;98317.78;4987678;28;20083;-74
2023/12/04 07:31:23;;;;;;;9.30;3.65;;;;;;;5.86;100.00;98329.13;5001169;28;20065;-73
2023/12/04 07:33:49;;;;;;;10.77;3.78;;;;;;;5.89;100.00;98317.47;5018942;28;20076;-74
2023/12/04 07:36:14;;;;;;;9.43;3.63;;;;;;;5.92;100.00;98324.31;5004254;28;20482;-74
2023/12/04 07:38:40;;;;;;;16.25;4.10;;;;;;;5.93;100.00;98323.16;5002551;28;20034;-74
2023/12/04 07:41:06;;;;;;;9.85;3.25;;;;;;;5.97;100.00;98315.94;5020765;28;20033;-74
2023/12/04 07:43:31;;;;;;;14.90;4.25;;;;;;;6.03;100.00;98314.66;5037121;28;20108;-74
2023/12/04 07:45:57;;;;;;;9.80;3.70;;;;;;;6.07;100.00;98312.06;5027507;28;20033;-74
2023/12/04 07:48:23;;;;;;;13.88;3.55;;;;;;;6.06;100.00;98307.72;5026056;28;20021;-74
2023/12/04 07:50:48;;;;;;;10.60;3.65;;;;;;;6.08;100.00;98298.00;5010007;28;20084;-74
2023/12/04 07:53:14;;;;;;;9.35;3.58;;;;;;;6.10;100.00;98292.16;5015480;28;20425;-74
2023/12/04 07:55:39;;;;;;;12.25;3.53;;;;;;;6.14;100.00;98287.63;5000777;28;20030;-74
2023/12/04 07:58:05;;;;;;;11.35;3.70;;;;;;;6.20;100.00;98295.44;5032252;28;20117;-74
2023/12/04 08:00:30;;;;;;;10.15;3.22;;;;;;;6.21;100.00;98283.28;5020678;28;20052;-74
2023/12/04 08:02:55;;;;;;;8.95;3.80;;;;;;;6.24;100.00;98288.16;5029720;28;20053;-74
2023/12/04 08:05:21;;;;;;;8.43;3.40;;;;;;;6.23;100.00;98277.44;5012083;28;20084;-74
2023/12/04 08:07:47;;;;;;;11.68;3.90;;;;;;;6.25;100.00;98286.22;5016594;28;20026;-74
2023/12/04 08:10:13;;;;;;;7.88;3.10;;;;;;;6.28;100.00;98271.78;5017205;28;20032;-74
2023/12/04 08:12:39;;;;;;;8.93;4.40;;;;;;;6.29;100.00;98278.91;5035618;28;20051;-74
2023/12/04 08:15:05;;;;;;;10.90;3.70;;;;;;;6.30;100.00;98269.53;5016616;28;20041;-74
2023/12/04 08:17:30;;;;;;;13.18;3.33;;;;;;;6.32;100.00;98269.19;5013381;28;20056;-74
2023/12/04 08:19:56;;;;;;;15.27;5.10;;;;;;;6.34;100.00;98265.00;5014879;28;20030;-74
2023/12/04 08:22:21;;;;;;;18.55;5.13;;;;;;;6.39;100.00;98262.09;5000215;28;20030;-74
2023/12/04 08:24:47;;;;;;;11.88;5.18;;;;;;;6.40;100.00;98265.66;5016341;28;20026;-74
2023/12/04 08:27:12;;;;;;;9.50;4.20;;;;;;;6.43;100.00;98257.53;5012373;28;20024;-74
2023/12/04 08:29:40;;;;;;;11.77;5.10;;;;;;;6.44;100.00;98253.66;5036419;28;20036;-74
2023/12/04 08:32:05;;;;;;;16.80;5.78;;;;;;;6.44;100.00;98253.66;5019741;28;20033;-74
2023/12/04 08:34:31;;;;;;;9.65;4.60;;;;;;;6.51;100.00;98246.84;5003416;28;20390;-73
2023/12/04 08:36:56;;;;;;;11.18;5.55;;;;;;;6.53;100.00;98241.84;5000515;28;20387;-74
2023/12/04 08:39:22;;;;;;;16.73;5.90;;;;;;;6.56;100.00;98239.25;4999638;28;20022;-74
2023/12/04 08:41:47;;;;;;;15.43;5.75;;;;;;;6.58;100.00;98233.41;5013629;28;20022;-74
2023/12/04 08:44:14;;;;;;;19.05;5.90;;;;;;;6.63;100.00;98239.59;5030494;28;20025;-74
2023/12/04 08:46:39;;;;;;;14.05;4.60;;;;;;;6.65;100.00;98239.25;5017871;28;20025;-74
2023/12/04 08:49:05;;;;;;;13.15;5.03;;;;;;;6.67;100.00;98232.28;5012004;28;20037;-74
2023/12/04 08:51:31;;;;;;;18.50;5.00;;;;;;;6.70;100.00;98215.06;5042903;28;20033;-74
2023/12/04 08:53:56;;;;;;;18.85;5.07;;;;;;;6.75;100.00;98207.78;5019338;28;20076;-74
2023/12/04 08:56:23;;;;;;;19.95;5.15;;;;;;;6.77;100.00;98211.84;5035680;28;20029;-74
2023/12/04 08:58:50;;;;;;;13.82;4.85;;;;;;;6.81;100.00;98206.47;5019788;28;20017;-74
2023/12/04 09:01:15;;;;;;;14.68;3.78;;;;;;;6.87;100.00;98202.41;5035677;28;20043;-74
2023/12/04 09:03:41;;;;;;;13.30;4.20;;;;;;;6.89;100.00;98202.91;5011192;28;20022;-74
2023/12/04 09:06:07;;;;;;;15.30;3.97;;;;;;;6.95;100.00;98209.88;5044975;28;20029;-74
2023/12/04 09:08:32;;;;;;;14.75;3.92;;;;;;;7.00;100.00;98206.94;4999536;28;20030;-74
2023/12/04 09:10:58;;;;;;;12.70;3.65;;;;;;;7.07;100.00;98198.16;5015452;28;20059;-74
2023/12/04 09:13:23;;;;;;;14.30;3.92;;;;;;;7.13;100.00;98208.72;5017229;28;20026;-74
2023/12/04 09:15:49;;;;;;;17.45;4.70;;;;;;;7.19;100.00;98212.13;5014796;28;20024;-74
2023/12/04 09:18:15;;;;;;;15.35;3.75;;;;;;;7.22;100.00;98205.94;5018397;28;20049;-73
2023/12/04 09:20:41;;;;;;;14.07;3.72;;;;;;;7.24;100.00;98209.16;5032236;28;20026;-74
2023/12/04 09:23:06;;;;;;;25.35;4.13;;;;;;;7.28;100.00;98217.63;5045085;28;20084;-74
2023/12/04 09:25:32;;;;;;;15.85;3.70;;;;;;;7.28;100.00;98232.22;5028549;28;20033;-74
2023/12/04 09:27:57;;;;;;;17.60;3.80;;;;;;;7.29;100.00;98278.03;5017560;28;20026;-74
2023/12/04 09:30:28;;;;;;;21.00;4.88;;;;;;;7.28;100.00;98292.97;5022397;28;20088;-74
2023/12/04 09:32:54;;;;;;;18.45;6.07;;;;;;;7.30;100.00;98279.66;5007539;28;20042;-74
2023/12/04 09:35:19;;;;;;;22.50;6.60;;;;;;;7.31;100.00;98266.66;5021813;28;20035;-74
2023/12/04 09:37:45;;;;;;;13.60;4.60;;;;;;;7.28;100.00;98264.56;5018417;28;20385;-74
2023/12/04 09:40:11;;;;;;;18.38;5.30;;;;;;;7.27;100.00;98274.78;5035061;28;20037;-74
2023/12/04 09:42:37;;;;;;;13.13;5.07;;;;;;;7.25;100.00;98287.31;5036363;28;20037;-74
2023/12/04 09:45:02;;;;;;;16.83;5.57;;;;;;;7.23;100.00;98279.34;5018708;28;20033;-74
2023/12/04 09:47:28;;;;;;;12.30;4.88;;;;;;;7.20;100.00;98274.47;5018678;28;20044;-74
2023/12/04 09:49:53;;;;;;;12.23;4.20;;;;;;;7.19;100.00;98275.63;5020036;28;20025;-74
2023/12/04 09:52:22;;;;;;;12.60;4.45;;;;;;;7.20;100.00;98279.19;4998809;28;20478;-74
2023/12/04 09:54:47;;;;;;;14.57;4.82;;;;;;;7.20;100.00;98276.41;5013309;28;20037;-74
2023/12/04 09:57:13;;;;;;;12.32;4.53;;;;;;;7.21;100.00;98289.06;5003359;28;20033;-74
2023/12/04 09:59:38;;;;;;;11.50;4.38;;;;;;;7.22;100.00;98294.28;4999055;28;20040;-74
2023/12/04 10:02:04;;;;;;;9.05;3.70;;;;;;;7.26;100.00;98300.75;5015217;28;20033;-74
2023/12/04 10:04:30;;;;;;;8.85;3.80;;;;;;;7.30;100.00;98301.75;5009698;28;20375;-74
2023/12/04 10:06:56;;;;;;;10.63;3.60;;;;;;;7.34;100.00;98294.41;5018238;28;20030;-74
2023/12/04 10:09:22;;;;;;;12.93;3.78;;;;;;;7.41;100.00;98301.41;5022102;28;20029;-74
2023/12/04 10:11:48;;;;;;;10.70;3.20;;;;;;;7.48;100.00;98308.06;5005391;28;20029;-74
2023/12/04 10:14:18;;;;;;;7.78;3.00;;;;;;;7.54;100.00;98316.97;4982369;28;20030;-74
2023/12/04 10:16:43;;;;;;;11.55;2.80;;;;;;;7.60;100.00;98313.75;5002443;28;20050;-74
2023/12/04 10:19:20;;;;;;;7.38;2.58;;;;;;;7.66;100.00;98321.81;5014486;28;20396;-74
2023/12/04 10:21:46;;;;;;;5.68;2.03;;;;;;;7.73;100.00;98314.66;5003883;28;20370;-74
2023/12/04 10:24:12;;;;;;;5.82;2.25;;;;;;;7.74;100.00;98321.00;4983578;28;20026;-74
2023/12/04 10:26:38;;;;;;;5.20;2.60;;;;;;;7.78;100.00;98322.78;5017500;28;20085;-74
2023/12/04 10:29:04;;;;;;;10.25;2.40;;;;;;;7.83;100.00;98330.09;5016201;28;20034;-74
2023/12/04 10:31:34;;;;;;;7.15;2.17;;;;;;;7.90;100.00;98332.34;5001447;28;20033;-74
2023/12/04 10:33:59;;;;;;;8.32;2.60;;;;;;;7.91;100.00;98331.19;5017430;28;20033;-74
2023/12/04 10:36:25;;;;;;;7.28;2.92;;;;;;;7.92;100.00;98336.41;5022940;28;20033;-74
2023/12/04 10:39:00;;;;;;;5.30;2.28;;;;;;;7.93;100.00;98345.50;5017194;28;20030;-74
2023/12/04 10:41:26;;;;;;;5.70;1.90;;;;;;;7.96;100.00;98339.31;5001025;28;20030;-74
2023/12/04 10:43:51;;;;;;;8.25;2.60;;;;;;;7.97;100.00;98340.97;5013933;28;20397;-74
2023/12/04 10:46:17;;;;;;;10.52;2.33;;;;;;;7.98;100.00;98337.84;5041353;28;20026;-74
2023/12/04 10:48:47;;;;;;;7.80;2.13;;;;;;;7.99;100.00;98339.47;5033598;28;20036;-74
2023/12/04 10:51:12;;;;;;;11.73;2.28;;;;;;;8.04;100.00;98344.00;5000919;28;20029;-74
2023/12/04 10:53:40;;;;;;;11.68;2.42;;;;;;;8.04;100.00;98347.56;5000797;28;20029;-74
2023/12/04 10:56:07;;;;;;;8.90;2.47;;;;;;;8.05;100.00;98351.16;4998266;28;20038;-74
2023/12/04 10:58:33;;;;;;;10.55;2.50;;;;;;;8.07;100.00;98346.91;5014727;28;20088;-74
2023/12/04 11:01:00;;;;;;;7.45;2.25;;;;;;;8.12;100.00;98345.13;5017688;28;20033;-74
2023/12/04 11:03:31;;;;;;;9.13;2.92;;;;;;;8.17;100.00;98356.81;4997350;28;20517;-74
2023/12/04 11:06:00;;;;;;;9.32;2.22;;;;;;;8.21;100.00;98351.44;5015380;28;20087;-74
2023/12/04 11:08:25;;;;;;;8.70;2.25;;;;;;;8.22;100.00;98342.81;5017975;28;20056;-74
2023/12/04 11:10:59;;;;;;;6.05;2.25;;;;;;;8.27;100.00;98344.56;4988399;28;20027;-74
2023/12/04 11:13:31;;;;;;;12.93;2.95;;;;;;;8.33;100.00;98353.50;5017841;28;20092;-74
2023/12/04 11:16:00;;;;;;;6.50;1.80;;;;;;;8.36;100.00;98339.84;5021376;28;20074;-74
2023/12/04 11:18:26;;;;;;;12.52;2.25;;;;;;;8.40;100.00;98354.63;5018643;28;20298;-73
2023/12/04 11:20:56;;;;;;;12.20;2.60;;;;;;;8.44;100.00;98347.31;5003785;28;20875;-74